createdAt,value
2019-02-26T00:01:57.953Z,13.83
2019-02-26T00:04:29.822Z,12.60
2019-02-26T00:07:00.371Z,11.33
2019-02-26T00:09:30.616Z,12.70
2019-02-26T00:12:00.865Z,12.00
2019-02-26T00:14:30.474Z,13.17
2019-02-26T00:16:59.899Z,13.17
2019-02-26T00:19:29.244Z,13.57
2019-02-26T00:21:58.593Z,12.80
2019-02-26T00:24:30.556Z,13.10
2019-02-26T00:27:00.960Z,13.70
2019-02-26T00:29:32.047Z,14.30
2019-02-26T00:32:01.130Z,11.07
2019-02-26T00:34:32.247Z,11.23
2019-02-26T00:37:03.944Z,12.87
2019-02-26T00:39:32.925Z,12.43
2019-02-26T00:42:02.723Z,14.80
2019-02-26T00:44:35.415Z,12.37
2019-02-26T00:47:06.564Z,13.00
2019-02-26T00:49:35.602Z,13.63
2019-02-26T00:52:06.396Z,11.67
2019-02-26T00:54:36.593Z,12.70
2019-02-26T00:57:08.717Z,11.60
2019-02-26T00:59:38.908Z,15.10
2019-02-26T01:02:08.233Z,11.53
2019-02-26T01:04:39.057Z,14.33
2019-02-26T01:07:08.698Z,11.57
2019-02-26T01:09:38.040Z,11.13
2019-02-26T01:12:09.137Z,12.90
2019-02-26T01:14:39.235Z,13.33
2019-02-26T01:17:10.441Z,11.47
2019-02-26T01:19:42.981Z,13.73
2019-02-26T01:22:11.945Z,12.50
2019-02-26T01:24:41.284Z,12.47
2019-02-26T01:27:10.623Z,10.97
2019-02-26T01:29:39.959Z,11.40
2019-02-26T01:32:13.154Z,13.93
2019-02-26T01:34:42.566Z,11.23
2019-02-26T01:37:12.046Z,13.13
2019-02-26T01:39:42.969Z,10.27
2019-02-26T01:42:13.419Z,15.47
2019-02-26T01:44:44.493Z,14.30
2019-02-26T01:47:13.948Z,14.63
2019-02-26T01:49:44.191Z,14.70
2019-02-26T01:52:17.316Z,15.30
2019-02-26T01:54:46.402Z,15.63
2019-02-26T01:57:17.361Z,15.03
2019-02-26T01:59:49.903Z,17.50
2019-02-26T02:02:20.359Z,16.50
2019-02-26T02:04:48.984Z,19.23
2019-02-26T02:07:18.936Z,16.00
2019-02-26T02:09:51.309Z,17.80
2019-02-26T02:12:20.445Z,16.47
2019-02-26T02:14:49.792Z,16.30
2019-02-26T02:17:19.127Z,13.60
2019-02-26T02:19:48.466Z,16.00
2019-02-26T02:22:19.077Z,17.30
2019-02-26T02:24:51.052Z,16.80
2019-02-26T02:27:22.222Z,18.80
2019-02-26T02:29:53.086Z,17.73
2019-02-26T02:32:26.098Z,17.10
2019-02-26T02:34:58.312Z,16.03
2019-02-26T02:37:26.951Z,14.53
2019-02-26T02:39:56.687Z,18.83
2019-02-26T02:42:26.029Z,15.07
2019-02-26T02:44:57.562Z,14.00
2019-02-26T02:47:29.918Z,15.07
2019-02-26T02:49:57.500Z,14.83
2019-02-26T02:52:30.434Z,13.53
2019-02-26T02:55:00.640Z,15.53
2019-02-26T02:57:32.004Z,16.40
2019-02-26T03:00:02.956Z,13.80
2019-02-26T03:02:32.100Z,14.70
2019-02-26T03:05:01.448Z,15.40
2019-02-26T03:07:30.789Z,16.13
2019-02-26T03:10:04.543Z,14.47
2019-02-26T03:12:33.307Z,18.73
2019-02-26T03:15:04.944Z,17.57
2019-02-26T03:17:33.723Z,18.90
2019-02-26T03:20:04.916Z,16.60
2019-02-26T03:22:36.313Z,16.20
2019-02-26T03:25:08.623Z,17.10
2019-02-26T03:27:40.623Z,16.83
2019-02-26T03:30:26.618Z,18.27
2019-02-26T03:32:52.153Z,15.30
2019-02-26T03:35:19.604Z,15.80
2019-02-26T03:37:51.615Z,17.47
2019-02-26T03:40:23.022Z,16.33
2019-02-26T03:42:51.597Z,14.13
2019-02-26T03:45:24.848Z,16.90
2019-02-26T03:47:52.020Z,21.57
2019-02-26T03:50:21.340Z,18.33
2019-02-26T03:52:50.668Z,13.07
2019-02-26T03:55:20.013Z,14.97
2019-02-26T03:57:52.836Z,16.80
2019-02-26T04:00:20.813Z,16.97
2019-02-26T04:02:51.548Z,18.73
2019-02-26T04:05:21.212Z,15.10
2019-02-26T04:07:53.257Z,18.63
2019-02-26T04:10:21.991Z,16.63
2019-02-26T04:12:54.643Z,15.07
2019-02-26T04:15:24.478Z,15.77
2019-02-26T04:17:53.468Z,15.73
2019-02-26T04:20:26.918Z,14.90
2019-02-26T04:22:56.828Z,14.77
2019-02-26T04:25:57.691Z,16.60
2019-02-26T04:28:40.364Z,16.27
2019-02-26T04:31:44.570Z,16.77
2019-02-26T04:34:29.628Z,15.73
2019-02-26T04:37:15.301Z,14.93
2019-02-26T04:40:16.572Z,14.93
2019-02-26T04:43:07.334Z,16.13
2019-02-26T04:45:49.971Z,16.67
2019-02-26T04:48:31.718Z,15.10
2019-02-26T04:51:00.569Z,17.57
2019-02-26T04:53:31.280Z,16.37
2019-02-26T04:56:02.972Z,13.20
2019-02-26T04:58:34.202Z,17.60
2019-02-26T05:01:04.781Z,18.60
2019-02-26T05:03:34.317Z,13.30
2019-02-26T05:06:07.371Z,16.43
2019-02-26T05:08:37.134Z,15.70
2019-02-26T05:11:05.850Z,18.23
2019-02-26T05:13:35.182Z,19.10
2019-02-26T05:16:04.518Z,16.90
2019-02-26T05:18:34.604Z,15.50
2019-02-26T05:21:06.914Z,16.93
2019-02-26T05:23:35.021Z,14.20
2019-02-26T05:26:05.657Z,16.97
2019-02-26T05:28:37.680Z,14.40
2019-02-26T05:31:09.079Z,15.57
2019-02-26T05:33:38.680Z,13.47
2019-02-26T05:36:09.440Z,17.80
2019-02-26T05:38:39.400Z,16.20
2019-02-26T05:41:08.742Z,17.07
2019-02-26T05:43:38.083Z,17.73
2019-02-26T05:46:07.420Z,15.43
2019-02-26T05:48:37.160Z,14.67
2019-02-26T05:51:09.322Z,15.13
2019-02-26T05:53:38.870Z,14.40
2019-02-26T05:56:08.845Z,15.17
2019-02-26T05:58:41.420Z,16.20
2019-02-26T06:01:10.494Z,16.53
2019-02-26T06:03:41.046Z,14.33
2019-02-26T06:06:10.890Z,17.23
2019-02-26T06:08:41.254Z,13.60
2019-02-26T06:11:10.696Z,18.43
2019-02-26T06:13:41.177Z,15.27
2019-02-26T06:16:11.095Z,15.87
2019-02-26T06:18:41.949Z,14.50
2019-02-26T06:21:13.808Z,16.87
2019-02-26T06:23:43.429Z,17.50
2019-02-26T06:26:14.918Z,15.43
2019-02-26T06:28:46.180Z,20.20
2019-02-26T06:31:17.410Z,18.20
2019-02-26T06:33:47.778Z,17.50
2019-02-26T06:36:18.558Z,19.37
2019-02-26T06:38:49.619Z,17.97
2019-02-26T06:41:19.718Z,16.17
2019-02-26T06:43:50.360Z,18.30
2019-02-26T06:46:20.165Z,17.80
2019-02-26T06:48:49.494Z,17.47
2019-02-26T06:51:19.524Z,15.83
2019-02-26T06:53:52.215Z,17.83
2019-02-26T06:56:20.949Z,18.53
2019-02-26T06:58:50.294Z,17.83
2019-02-26T07:01:19.626Z,15.70
2019-02-26T07:03:48.970Z,19.93
2019-02-26T07:06:20.855Z,15.60
2019-02-26T07:08:51.013Z,15.40
2019-02-26T07:11:20.429Z,15.43
2019-02-26T07:13:49.764Z,19.17
2019-02-26T07:16:20.712Z,21.63
2019-02-26T07:18:50.157Z,16.67
2019-02-26T07:21:19.490Z,19.03
2019-02-26T07:23:48.830Z,16.97
2019-02-26T07:26:18.900Z,16.13
2019-02-26T07:28:51.013Z,17.87
2019-02-26T07:31:20.457Z,16.80
2019-02-26T07:33:51.526Z,16.17
2019-02-26T07:36:21.831Z,19.03
2019-02-26T07:38:53.911Z,16.20
2019-02-26T07:41:23.636Z,18.17
2019-02-26T07:43:54.719Z,22.23
2019-02-26T07:46:24.246Z,25.80
2019-02-26T07:48:56.238Z,17.40
2019-02-26T07:51:24.642Z,25.17
2019-02-26T07:53:55.954Z,21.00
2019-02-26T07:56:25.974Z,19.43
2019-02-26T07:58:59.063Z,26.87
2019-02-26T08:01:27.172Z,19.57
2019-02-26T08:03:56.514Z,26.23
2019-02-26T08:06:26.715Z,25.13
2019-02-26T08:08:56.950Z,17.60
2019-02-26T08:11:26.290Z,21.27
2019-02-26T08:13:56.749Z,16.90
2019-02-26T08:16:27.730Z,15.17
2019-02-26T08:18:58.915Z,16.87
2019-02-26T08:21:29.717Z,15.97
2019-02-26T08:23:59.090Z,20.83
2019-02-26T08:26:29.166Z,25.07
2019-02-26T08:29:00.143Z,17.30
2019-02-26T08:31:30.540Z,20.73
2019-02-26T08:33:59.883Z,18.93
2019-02-26T08:36:29.398Z,20.40
2019-02-26T08:38:58.737Z,18.97
2019-02-26T08:41:28.084Z,18.83
2019-02-26T08:43:58.833Z,19.40
2019-02-26T08:46:28.348Z,19.70
2019-02-26T08:48:57.692Z,22.03
2019-02-26T08:51:27.032Z,20.40
2019-02-26T08:53:57.238Z,15.23
2019-02-26T08:56:28.299Z,21.63
2019-02-26T08:58:58.477Z,18.47
2019-02-26T09:01:28.843Z,16.87
2019-02-26T09:03:58.989Z,16.40
2019-02-26T09:06:29.262Z,18.13
2019-02-26T09:09:00.189Z,16.63
2019-02-26T09:11:31.847Z,17.17
2019-02-26T09:14:02.193Z,19.10
2019-02-26T09:16:32.788Z,18.30
2019-02-26T09:19:02.226Z,17.93
2019-02-26T09:21:31.566Z,20.93
2019-02-26T09:24:02.613Z,18.50
2019-02-26T09:26:31.992Z,17.63
2019-02-26T09:29:01.329Z,18.67
2019-02-26T09:31:30.674Z,18.37
2019-02-26T09:34:00.025Z,18.40
2019-02-26T09:36:29.570Z,17.80
2019-02-26T09:38:58.906Z,17.90
2019-02-26T09:41:28.251Z,23.17
2019-02-26T09:43:59.471Z,17.00
2019-02-26T09:46:28.670Z,18.77
2019-02-26T09:49:00.334Z,20.00
2019-02-26T09:51:30.614Z,21.97
2019-02-26T09:54:00.161Z,20.37
2019-02-26T09:56:29.506Z,18.17
2019-02-26T09:58:58.870Z,17.07
2019-02-26T10:01:30.161Z,23.53
2019-02-26T10:04:01.312Z,18.53
2019-02-26T10:06:30.393Z,17.97
2019-02-26T10:08:59.735Z,19.30
2019-02-26T10:11:29.087Z,18.70
2019-02-26T10:13:58.433Z,20.13
2019-02-26T10:16:28.662Z,18.00
2019-02-26T10:18:58.851Z,17.83
2019-02-26T10:21:28.201Z,19.83
2019-02-26T10:23:59.309Z,19.50
2019-02-26T10:26:30.787Z,18.77
2019-02-26T10:29:04.394Z,19.30
2019-02-26T10:31:30.771Z,20.70
2019-02-26T10:34:00.117Z,17.97
2019-02-26T10:36:32.517Z,17.53
2019-02-26T10:39:02.797Z,18.30
2019-02-26T10:41:31.693Z,19.47
2019-02-26T10:44:01.040Z,19.57
2019-02-26T10:46:32.182Z,20.70
2019-02-26T10:49:01.769Z,19.73
2019-02-26T10:51:31.113Z,14.73
2019-02-26T10:54:02.618Z,15.57
2019-02-26T10:56:36.832Z,17.03
2019-02-26T10:59:05.510Z,16.33
2019-02-26T11:01:34.105Z,13.97
2019-02-26T11:04:04.539Z,16.93
2019-02-26T11:06:36.700Z,17.37
2019-02-26T11:09:11.137Z,17.90
2019-02-26T11:11:42.344Z,18.60
2019-02-26T11:14:14.250Z,19.17
2019-02-26T11:16:42.951Z,17.33
2019-02-26T11:19:12.476Z,15.63
2019-02-26T11:21:41.924Z,18.07
2019-02-26T11:24:11.412Z,15.27
2019-02-26T11:26:41.426Z,16.20
2019-02-26T11:29:11.859Z,14.73
2019-02-26T11:31:42.503Z,17.03
2019-02-26T11:34:13.330Z,14.23
2019-02-26T11:36:42.894Z,18.43
2019-02-26T11:39:12.313Z,17.83
2019-02-26T11:41:41.655Z,15.87
2019-02-26T11:44:12.725Z,17.47
2019-02-26T11:46:43.793Z,13.10
2019-02-26T11:49:16.323Z,18.53
2019-02-26T11:51:44.241Z,12.93
2019-02-26T11:54:15.101Z,13.30
2019-02-26T11:56:46.750Z,16.40
2019-02-26T11:59:16.830Z,13.50
2019-02-26T12:01:46.777Z,10.70
2019-02-26T12:04:17.016Z,11.40
2019-02-26T12:06:46.546Z,10.37
2019-02-26T12:09:16.184Z,10.17
2019-02-26T12:11:45.710Z,11.93
2019-02-26T12:14:18.401Z,10.20
2019-02-26T12:16:46.125Z,9.17
2019-02-26T12:19:15.462Z,8.57
2019-02-26T12:21:44.806Z,10.57
2019-02-26T12:24:14.143Z,10.63
2019-02-26T12:26:45.307Z,13.27
2019-02-26T12:29:16.192Z,8.03
2019-02-26T12:31:46.009Z,7.87
2019-02-26T12:34:20.761Z,8.70
2019-02-26T12:36:51.228Z,9.35
2019-02-26T12:39:22.142Z,7.15
2019-02-26T12:41:51.796Z,6.95
2019-02-26T12:44:21.088Z,5.35
2019-02-26T12:46:51.155Z,5.47
2019-02-26T12:49:22.551Z,4.15
2019-02-26T12:51:54.009Z,5.50
2019-02-26T12:54:23.080Z,6.42
2019-02-26T12:56:55.011Z,4.45
2019-02-26T12:59:23.485Z,3.45
2019-02-26T13:01:52.825Z,5.37
2019-02-26T13:04:24.936Z,5.00
2019-02-26T13:06:53.235Z,5.72
2019-02-26T13:09:26.667Z,7.45
2019-02-26T13:12:01.279Z,5.67
2019-02-26T13:14:24.701Z,9.08
2019-02-26T13:16:57.151Z,4.50
2019-02-26T13:19:29.924Z,6.53
2019-02-26T13:22:04.895Z,5.60
2019-02-26T13:24:27.579Z,6.58
2019-02-26T13:26:59.688Z,5.78
2019-02-26T13:29:27.982Z,4.95
2019-02-26T13:31:59.961Z,4.78
2019-02-26T13:34:28.731Z,5.58
2019-02-26T13:36:58.069Z,5.78
2019-02-26T13:39:36.809Z,6.53
2019-02-26T13:42:03.972Z,8.15
2019-02-26T13:44:29.684Z,3.77
2019-02-26T13:46:59.092Z,3.95
2019-02-26T13:49:28.435Z,5.40
2019-02-26T13:51:57.769Z,4.60
2019-02-26T13:54:27.117Z,6.05
2019-02-26T13:56:56.453Z,4.30
2019-02-26T13:59:25.793Z,4.87
2019-02-26T14:01:55.130Z,8.13
2019-02-26T14:04:24.747Z,7.60
2019-02-26T14:06:54.087Z,8.68
2019-02-26T14:09:23.428Z,6.42
2019-02-26T14:11:52.765Z,8.23
2019-02-26T14:14:22.121Z,6.92
2019-02-26T14:16:51.458Z,7.70
2019-02-26T14:19:20.802Z,15.00
2019-02-26T14:21:50.149Z,6.25
2019-02-26T14:24:19.486Z,5.67
2019-02-26T14:26:48.821Z,6.15
2019-02-26T14:29:18.161Z,6.92
2019-02-26T14:31:47.497Z,8.43
2019-02-26T14:34:16.837Z,5.70
2019-02-26T14:36:46.177Z,6.47
2019-02-26T14:39:15.661Z,8.95
2019-02-26T14:41:45.000Z,8.68
2019-02-26T14:44:14.342Z,11.83
2019-02-26T14:46:43.685Z,11.55
2019-02-26T14:49:13.030Z,13.20
2019-02-26T14:51:42.370Z,12.37
2019-02-26T14:54:12.854Z,13.70
2019-02-26T14:56:42.197Z,12.23
2019-02-26T14:59:11.544Z,12.23
2019-02-26T15:01:41.258Z,12.00
2019-02-26T15:04:10.606Z,12.40
2019-02-26T15:06:39.951Z,17.35
2019-02-26T15:09:09.562Z,13.05
2019-02-26T15:11:38.916Z,10.13
2019-02-26T15:14:08.294Z,9.33
2019-02-26T15:16:37.643Z,8.73
2019-02-26T15:19:06.985Z,9.18
2019-02-26T15:21:36.327Z,11.45
2019-02-26T15:24:05.672Z,11.05
2019-02-26T15:26:35.010Z,12.63
2019-02-26T15:29:04.359Z,11.83
2019-02-26T15:31:33.699Z,14.60
2019-02-26T15:34:03.042Z,11.00
2019-02-26T15:36:32.765Z,12.78
2019-02-26T15:39:02.105Z,11.57
2019-02-26T15:41:31.454Z,21.05
2019-02-26T15:44:00.804Z,19.27
2019-02-26T15:46:30.901Z,13.70
2019-02-26T15:49:00.670Z,13.68
2019-02-26T15:51:30.011Z,10.88
2019-02-26T15:53:59.564Z,11.30
2019-02-26T15:56:29.789Z,14.45
2019-02-26T15:58:59.612Z,13.13
2019-02-26T16:01:28.958Z,11.15
2019-02-26T16:03:58.307Z,12.23
2019-02-26T16:06:27.646Z,12.03
2019-02-26T16:08:57.001Z,12.10
2019-02-26T16:11:26.331Z,11.97
2019-02-26T16:13:55.674Z,10.08
2019-02-26T16:16:25.019Z,10.48
2019-02-26T16:18:54.368Z,9.35
2019-02-26T16:21:25.575Z,13.32
2019-02-26T16:23:54.779Z,11.05
2019-02-26T16:26:24.117Z,9.13
2019-02-26T16:28:53.463Z,12.35
2019-02-26T16:31:22.801Z,14.63
2019-02-26T16:33:52.142Z,10.98
2019-02-26T16:36:21.496Z,10.40
2019-02-26T16:38:51.610Z,12.68
2019-02-26T16:41:21.055Z,11.83
2019-02-26T16:43:51.927Z,17.15
2019-02-26T16:46:21.463Z,19.37
2019-02-26T16:48:53.185Z,22.10
2019-02-26T16:51:21.907Z,20.77
2019-02-26T16:53:51.227Z,21.97
2019-02-26T16:56:21.975Z,21.57
2019-02-26T16:58:51.798Z,16.87
2019-02-26T17:01:21.834Z,17.57
2019-02-26T17:03:51.859Z,12.03
2019-02-26T17:06:21.282Z,13.32
2019-02-26T17:08:50.622Z,14.38
2019-02-26T17:11:20.247Z,12.70
2019-02-26T17:13:49.581Z,12.15
2019-02-26T17:16:19.564Z,13.70
2019-02-26T17:18:48.906Z,15.37
2019-02-26T17:21:18.247Z,13.17
2019-02-26T17:23:47.798Z,15.47
2019-02-26T17:26:17.107Z,17.50
2019-02-26T17:28:46.508Z,21.00
2019-02-26T17:31:15.855Z,20.20
2019-02-26T17:33:46.735Z,14.07
2019-02-26T17:36:16.274Z,11.57
2019-02-26T17:38:45.613Z,16.47
2019-02-26T17:41:14.976Z,12.60
2019-02-26T17:43:44.315Z,14.90
2019-02-26T17:46:13.668Z,14.90
2019-02-26T17:48:43.706Z,13.00
2019-02-26T17:51:13.222Z,20.70
2019-02-26T17:53:42.564Z,19.67
2019-02-26T17:56:11.902Z,20.80
2019-02-26T17:58:41.746Z,12.17
2019-02-26T18:01:12.392Z,18.57
2019-02-26T18:03:44.735Z,21.33
2019-02-26T18:06:13.168Z,17.63
2019-02-26T18:08:42.599Z,13.80
2019-02-26T18:11:11.944Z,14.10
2019-02-26T18:13:41.283Z,12.93
2019-02-26T18:16:10.631Z,13.60
2019-02-26T18:18:39.971Z,12.57
2019-02-26T18:21:09.312Z,17.20
2019-02-26T18:23:38.655Z,13.33
2019-02-26T18:26:08.001Z,9.90
2019-02-26T18:28:37.336Z,9.77
2019-02-26T18:31:06.698Z,18.17
2019-02-26T18:33:36.335Z,10.37
2019-02-26T18:36:05.761Z,13.73
2019-02-26T18:38:35.177Z,29.63
2019-02-26T18:41:04.522Z,20.10
2019-02-26T18:43:33.864Z,20.53
2019-02-26T18:46:03.206Z,11.97
2019-02-26T18:48:32.627Z,13.73
2019-02-26T18:51:02.414Z,13.93
2019-02-26T18:53:32.399Z,11.73
2019-02-26T18:56:04.132Z,12.83
2019-02-26T18:58:32.822Z,18.43
2019-02-26T19:01:02.172Z,18.33
2019-02-26T19:03:31.513Z,20.30
2019-02-26T19:06:00.859Z,17.23
2019-02-26T19:08:30.212Z,15.70
2019-02-26T19:10:59.564Z,11.67
2019-02-26T19:13:28.939Z,12.73
2019-02-26T19:15:58.287Z,14.20
2019-02-26T19:18:27.632Z,18.00
2019-02-26T19:20:56.977Z,17.13
2019-02-26T19:23:26.395Z,16.03
2019-02-26T19:25:55.742Z,18.90
2019-02-26T19:28:26.446Z,16.37
2019-02-26T19:30:55.803Z,10.40
2019-02-26T19:33:25.143Z,16.10
2019-02-26T19:35:54.485Z,12.47
2019-02-26T19:38:27.238Z,11.03
2019-02-26T19:41:02.176Z,11.73
2019-02-26T19:43:31.514Z,11.00
2019-02-26T19:46:02.265Z,11.27
2019-02-26T19:48:33.858Z,14.17
2019-02-26T19:51:02.975Z,17.73
2019-02-26T19:53:34.494Z,17.17
2019-02-26T19:56:03.732Z,15.53
2019-02-26T19:58:33.070Z,14.33
2019-02-26T20:01:02.410Z,13.17
2019-02-26T20:03:39.610Z,11.43
2019-02-26T20:06:02.823Z,11.40
2019-02-26T20:08:32.165Z,11.47
2019-02-26T20:11:01.507Z,10.40
2019-02-26T20:13:31.711Z,12.87
2019-02-26T20:16:01.926Z,11.10
2019-02-26T20:18:31.268Z,13.57
2019-02-26T20:21:00.596Z,10.77
2019-02-26T20:23:29.959Z,14.23
2019-02-26T20:25:59.277Z,12.27
2019-02-26T20:28:28.782Z,12.80
2019-02-26T20:30:58.132Z,18.67
2019-02-26T20:33:27.474Z,11.83
2019-02-26T20:35:56.955Z,14.17
2019-02-26T20:38:26.299Z,14.17
2019-02-26T20:40:55.633Z,12.20
2019-02-26T20:43:24.973Z,13.57
2019-02-26T20:45:54.307Z,12.90
2019-02-26T20:48:23.645Z,14.27
2019-02-26T20:50:53.735Z,14.93
2019-02-26T20:53:23.905Z,14.87
2019-02-26T20:55:57.471Z,13.90
2019-02-26T20:58:24.311Z,14.00
2019-02-26T21:00:53.649Z,12.57
2019-02-26T21:03:22.992Z,15.17
2019-02-26T21:05:52.393Z,11.83
2019-02-26T21:08:21.725Z,15.23
2019-02-26T21:10:51.132Z,17.67
2019-02-26T21:13:20.465Z,17.33
2019-02-26T21:15:49.804Z,17.07
2019-02-26T21:18:19.143Z,14.83
2019-02-26T21:20:49.263Z,17.80
2019-02-26T21:23:18.696Z,13.07
2019-02-26T21:25:48.029Z,14.23
2019-02-26T21:28:17.380Z,12.87
2019-02-26T21:30:46.718Z,18.70
2019-02-26T21:33:16.058Z,20.53
2019-02-26T21:35:45.397Z,15.43
2019-02-26T21:38:14.782Z,17.33
2019-02-26T21:40:44.127Z,17.03
2019-02-26T21:43:13.467Z,12.37
2019-02-26T21:45:44.506Z,19.47
2019-02-26T21:48:13.927Z,14.77
2019-02-26T21:50:43.265Z,17.07
2019-02-26T21:53:15.713Z,13.97
2019-02-26T21:55:44.379Z,18.03
2019-02-26T21:58:14.992Z,15.93
2019-02-26T22:00:44.427Z,16.63
2019-02-26T22:03:13.762Z,13.63
2019-02-26T22:05:43.102Z,16.10
2019-02-26T22:08:12.442Z,14.80
2019-02-26T22:10:42.789Z,15.63
2019-02-26T22:13:12.710Z,14.63
2019-02-26T22:15:44.528Z,16.23
2019-02-26T22:18:13.116Z,15.03
2019-02-26T22:20:42.454Z,15.40
2019-02-26T22:23:11.794Z,17.40
2019-02-26T22:25:41.130Z,15.13
2019-02-26T22:28:10.468Z,17.63
2019-02-26T22:30:39.811Z,16.60
2019-02-26T22:33:09.149Z,16.07
2019-02-26T22:35:38.490Z,15.40
2019-02-26T22:38:07.830Z,18.73
2019-02-26T22:40:37.181Z,20.60
2019-02-26T22:43:06.517Z,16.23
2019-02-26T22:45:35.859Z,14.97
2019-02-26T22:48:05.210Z,17.50
2019-02-26T22:50:34.552Z,20.47
2019-02-26T22:53:04.557Z,15.83
2019-02-26T22:55:33.906Z,15.17
2019-02-26T22:58:03.412Z,15.93
2019-02-26T23:01:00.451Z,17.27
2019-02-26T23:03:29.794Z,17.50
2019-02-26T23:05:59.632Z,19.27
2019-02-26T23:08:29.053Z,18.53
2019-02-26T23:10:58.653Z,17.53
2019-02-26T23:13:31.513Z,21.73
2019-02-26T23:15:59.397Z,19.23
2019-02-26T23:18:31.047Z,17.70
2019-02-26T23:21:00.831Z,20.07
2019-02-26T23:23:30.209Z,22.70
2019-02-26T23:25:59.721Z,16.57
2019-02-26T23:28:29.330Z,20.93
2019-02-26T23:30:59.889Z,16.67
2019-02-26T23:33:29.699Z,15.63
2019-02-26T23:35:59.114Z,15.57
2019-02-26T23:38:28.461Z,16.83
2019-02-26T23:41:00.204Z,15.73
2019-02-26T23:43:29.197Z,18.13
2019-02-26T23:45:58.535Z,16.47
2019-02-26T23:48:27.876Z,16.97
2019-02-26T23:50:57.217Z,17.93
2019-02-26T23:53:26.564Z,25.00
2019-02-26T23:55:55.913Z,17.10
2019-02-26T23:58:25.285Z,18.10
